Time;durP1;ratioP1;P1;durP2;ratioP2;P2;SDS_P1;SDS_P2;PMS_P1;PMS_P2;Temp;Humidity;BMP_temperature;BMP_pressure;BME280_temperature;BME280_humidity;BME280_pressure;Samples;Min_cycle;Max_cycle;Signal;HPM_P1;HPM_P2
2022/10/22 00:00:54;;;;;;;2.13;1.87;;;;;;;16.29;100.00;99809.44;5044650;28;20471;-51
2022/10/22 00:03:21;;;;;;;1.83;1.33;;;;;;;16.29;100.00;99817.47;5048668;28;20843;-51
2022/10/22 00:05:47;;;;;;;4.83;1.77;;;;;;;16.24;100.00;99819.59;5048362;28;20451;-52
2022/10/22 00:08:13;;;;;;;2.00;1.37;;;;;;;16.18;100.00;99815.47;5044664;28;20430;-50
2022/10/22 00:10:40;;;;;;;12.00;1.33;;;;;;;16.17;100.00;99815.53;5041309;28;20519;-54
2022/10/22 00:13:06;;;;;;;4.53;1.90;;;;;;;16.18;100.00;99814.59;5039198;28;20450;-51
2022/10/22 00:15:33;;;;;;;2.50;2.30;;;;;;;16.14;100.00;99819.25;5048358;28;21191;-51
2022/10/22 00:17:59;;;;;;;4.80;1.03;;;;;;;16.16;100.00;99813.78;5043000;28;20501;-51
2022/10/22 00:20:25;;;;;;;1.30;1.20;;;;;;;16.18;100.00;99820.81;5049515;28;20445;-51
2022/10/22 00:22:52;;;;;;;1.47;1.40;;;;;;;16.12;100.00;99820.31;5052697;28;20425;-52
2022/10/22 00:25:18;;;;;;;4.10;1.50;;;;;;;16.09;100.00;99815.13;5052278;28;20421;-53
2022/10/22 00:27:45;;;;;;;3.87;1.50;;;;;;;16.04;100.00;99804.69;5052720;28;20429;-52
2022/10/22 00:30:11;;;;;;;2.20;0.97;;;;;;;15.64;100.00;99809.66;5046714;28;20855;-52
2022/10/22 00:32:38;;;;;;;1.10;1.00;;;;;;;15.79;100.00;99791.84;5043558;28;20424;-52
2022/10/22 00:35:06;;;;;;;3.07;1.60;;;;;;;15.84;100.00;99781.72;5051928;28;20543;-51
2022/10/22 00:37:32;;;;;;;1.47;1.37;;;;;;;15.75;100.00;99784.06;5045430;28;21000;-51
2022/10/22 00:39:59;;;;;;;2.27;1.40;;;;;;;15.65;100.00;99783.75;5051911;28;20441;-53
2022/10/22 00:42:28;;;;;;;3.77;2.43;;;;;;;15.74;100.00;99776.97;5052047;28;20429;-51
2022/10/22 00:45:08;;;;;;;8.90;1.27;;;;;;;15.75;100.00;99763.47;5046698;28;20823;-51
2022/10/22 00:48:06;;;;;;;1.40;1.30;;;;;;;15.72;100.00;99766.34;5045181;28;20454;-51
2022/10/22 00:50:36;;;;;;;2.80;2.23;;;;;;;15.68;100.00;99768.34;5047461;28;20445;-50
2022/10/22 00:53:06;;;;;;;1.07;1.03;;;;;;;15.65;100.00;99771.19;5051844;28;20454;-49
2022/10/22 00:55:34;;;;;;;1.10;1.00;;;;;;;15.77;100.00;99772.31;5041292;28;20872;-49
2022/10/22 00:58:01;;;;;;;1.43;1.33;;;;;;;15.67;100.00;99781.84;5050758;28;20424;-49
2022/10/22 01:00:27;;;;;;;4.60;1.03;;;;;;;15.82;100.00;99794.34;5051819;28;20445;-50
2022/10/22 01:02:54;;;;;;;2.17;1.60;;;;;;;15.79;100.00;99809.75;5051549;28;20944;-49
2022/10/22 01:05:21;;;;;;;3.57;2.53;;;;;;;15.81;100.00;99813.19;5044634;28;20451;-53
2022/10/22 01:07:51;;;;;;;6.23;1.97;;;;;;;15.83;100.00;99811.28;5052145;28;20437;-50
2022/10/22 01:11:02;;;;;;;14.93;2.03;;;;;;;15.79;100.00;99813.28;5048103;28;20479;-50
2022/10/22 01:14:03;;;;;;;8.10;1.53;;;;;;;15.98;100.00;99813.06;5051705;28;20450;-51
2022/10/22 01:16:57;;;;;;;5.50;2.07;;;;;;;15.88;100.00;99819.91;5051942;28;20894;-49
2022/10/22 01:19:46;;;;;;;3.13;1.53;;;;;;;15.88;100.00;99820.78;5029454;28;20455;-51
2022/10/22 01:22:33;;;;;;;4.30;2.60;;;;;;;15.83;100.00;99830.91;5038756;28;20491;-50
2022/10/22 01:25:12;;;;;;;1.30;1.20;;;;;;;15.71;100.00;99823.56;5050946;28;20568;-52
2022/10/22 01:27:46;;;;;;;1.97;1.37;;;;;;;15.66;100.00;99834.56;5041554;28;20494;-49
2022/10/22 01:30:14;;;;;;;4.90;1.73;;;;;;;15.57;100.00;99831.50;5050179;28;20444;-48
2022/10/22 01:32:59;;;;;;;6.13;2.33;;;;;;;15.63;100.00;99831.19;5042347;28;20868;-52
2022/10/22 01:35:30;;;;;;;2.57;1.57;;;;;;;15.72;100.00;99821.75;5050997;28;20830;-50
2022/10/22 01:38:07;;;;;;;1.10;1.10;;;;;;;15.84;100.00;99838.00;5051014;28;20938;-50
2022/10/22 01:40:35;;;;;;;10.70;1.57;;;;;;;15.70;100.00;99840.59;5043040;28;20474;-51
2022/10/22 01:43:04;;;;;;;4.50;1.83;;;;;;;15.77;100.00;99846.50;5050945;28;20429;-49
2022/10/22 01:45:38;;;;;;;0.93;0.83;;;;;;;15.72;100.00;99825.28;5050976;28;20421;-48
2022/10/22 01:48:13;;;;;;;0.90;0.80;;;;;;;15.90;100.00;99826.94;5042729;28;20900;-51
2022/10/22 01:50:54;;;;;;;1.37;1.00;;;;;;;15.97;100.00;99833.66;5045924;28;20488;-50
2022/10/22 01:53:39;;;;;;;7.80;2.43;;;;;;;16.00;100.00;99817.38;5050866;28;20454;-51
2022/10/22 01:56:09;;;;;;;2.43;1.00;;;;;;;16.21;100.00;99820.63;5050553;28;20494;-52
2022/10/22 01:58:38;;;;;;;1.03;0.97;;;;;;;16.05;100.00;99818.94;5045320;28;20478;-51
2022/10/22 02:01:31;;;;;;;0.60;0.50;;;;;;;15.99;100.00;99831.75;5050891;28;20475;-50
2022/10/22 02:04:07;;;;;;;2.20;1.13;;;;;;;16.02;100.00;99835.19;5040519;28;20955;-52
2022/10/22 02:06:37;;;;;;;4.23;0.90;;;;;;;16.10;100.00;99841.84;5050973;28;20421;-53
2022/10/22 02:09:06;;;;;;;2.67;0.90;;;;;;;15.99;100.00;99847.81;5047644;28;20458;-50
2022/10/22 02:11:33;;;;;;;31.27;1.13;;;;;;;16.10;100.00;99827.56;5048186;28;20996;-50
2022/10/22 02:14:03;;;;;;;3.43;0.97;;;;;;;16.18;100.00;99815.47;5050217;28;20450;-50
2022/10/22 02:16:42;;;;;;;0.80;0.67;;;;;;;16.23;100.00;99817.84;5040564;28;20965;-51
2022/10/22 02:19:18;;;;;;;1.33;1.07;;;;;;;16.24;100.00;99827.63;5035591;28;20451;-52
2022/10/22 02:21:45;;;;;;;1.03;0.50;;;;;;;16.23;100.00;99824.09;5050367;28;20445;-50
2022/10/22 02:24:12;;;;;;;0.50;0.40;;;;;;;16.26;100.00;99823.91;5043736;28;20484;-52
2022/10/22 02:26:46;;;;;;;0.93;0.60;;;;;;;16.30;100.00;99822.75;5045147;28;20453;-52
2022/10/22 02:29:21;;;;;;;1.87;0.93;;;;;;;16.34;100.00;99817.22;5050181;28;20475;-52
2022/10/22 02:31:51;;;;;;;0.60;0.40;;;;;;;16.38;100.00;99803.53;5049819;28;20482;-52
2022/10/22 02:34:23;;;;;;;0.67;0.60;;;;;;;16.49;100.00;99792.16;5043026;28;20488;-50
2022/10/22 02:36:50;;;;;;;1.57;0.63;;;;;;;16.50;100.00;99801.94;5049248;28;20458;-54
2022/10/22 02:39:19;;;;;;;29.93;0.80;;;;;;;16.72;100.00;99794.31;5049188;28;20487;-51
2022/10/22 02:41:47;;;;;;;0.80;0.57;;;;;;;16.63;100.00;99789.47;5026255;28;20966;-52
2022/10/22 02:44:13;;;;;;;1.17;0.63;;;;;;;16.59;100.00;99783.44;5049712;28;20469;-51
2022/10/22 02:46:42;;;;;;;8.70;0.80;;;;;;;16.59;100.00;99793.31;5023638;28;20504;-54
2022/10/22 02:49:08;;;;;;;1.90;1.80;;;;;;;16.57;100.00;99790.72;5049712;28;20476;-50
2022/10/22 02:51:34;;;;;;;5.93;0.60;;;;;;;16.66;100.00;99796.47;5041598;28;20453;-50
2022/10/22 02:54:01;;;;;;;1.00;0.70;;;;;;;16.60;100.00;99797.72;5049453;28;20931;-50
2022/10/22 02:56:27;;;;;;;0.60;0.60;;;;;;;16.58;100.00;99800.50;5049541;28;20494;-50
2022/10/22 02:58:54;;;;;;;2.30;1.10;;;;;;;16.83;100.00;99807.91;5049252;28;20466;-53
2022/10/22 03:01:20;;;;;;;0.87;0.60;;;;;;;16.70;100.00;99812.31;5045656;28;20511;-50
2022/10/22 03:03:47;;;;;;;1.07;0.60;;;;;;;16.72;100.00;99823.84;5049459;28;20454;-53
2022/10/22 03:06:14;;;;;;;6.13;0.87;;;;;;;16.71;100.00;99815.88;5041348;28;20426;-50
2022/10/22 03:08:40;;;;;;;0.50;0.30;;;;;;;16.87;100.00;99824.72;5044350;28;20451;-50
2022/10/22 03:11:07;;;;;;;1.30;1.00;;;;;;;16.86;100.00;99818.50;5040911;28;20527;-52
2022/10/22 03:13:34;;;;;;;0.50;0.40;;;;;;;16.84;100.00;99815.00;5042280;28;20445;-53
2022/10/22 03:16:00;;;;;;;0.70;0.50;;;;;;;16.85;100.00;99819.41;5049492;28;20498;-53
2022/10/22 03:18:27;;;;;;;0.50;0.40;;;;;;;16.72;100.00;99815.81;5037541;28;20431;-52
2022/10/22 03:21:06;;;;;;;1.50;0.87;;;;;;;16.73;100.00;99806.78;5043959;28;20450;-52
2022/10/22 03:23:33;;;;;;;5.93;1.03;;;;;;;16.68;100.00;99802.66;5045209;28;20508;-52
2022/10/22 03:25:59;;;;;;;0.87;0.60;;;;;;;16.68;100.00;99814.25;5049617;28;20447;-52
2022/10/22 03:28:26;;;;;;;0.80;0.70;;;;;;;16.64;100.00;99838.66;5049600;28;20425;-51
2022/10/22 03:30:52;;;;;;;0.80;0.80;;;;;;;16.53;100.00;99839.28;5049073;28;20484;-52
2022/10/22 03:33:18;;;;;;;4.93;0.50;;;;;;;16.51;100.00;99844.75;5042723;28;20430;-52
2022/10/22 03:35:46;;;;;;;0.77;0.77;;;;;;;16.45;100.00;99855.00;5048990;28;20536;-52
2022/10/22 03:38:13;;;;;;;0.40;0.40;;;;;;;16.35;100.00;99854.69;5044646;28;20855;-52
2022/10/22 03:40:43;;;;;;;2.00;0.50;;;;;;;16.52;100.00;99864.41;5049005;28;20479;-52
2022/10/22 03:43:10;;;;;;;4.00;0.80;;;;;;;16.38;100.00;99867.03;5048901;28;20480;-53
2022/10/22 03:45:36;;;;;;;0.77;0.63;;;;;;;16.35;100.00;99859.19;5048963;28;20462;-52
2022/10/22 03:48:04;;;;;;;1.17;0.47;;;;;;;16.39;100.00;99866.94;5038872;28;20455;-52
2022/10/22 03:50:30;;;;;;;0.70;0.50;;;;;;;16.31;100.00;99869.25;5040319;28;20533;-52
2022/10/22 03:52:57;;;;;;;0.40;0.30;;;;;;;16.23;100.00;99874.19;5048474;28;20989;-52
2022/10/22 03:55:23;;;;;;;1.63;0.40;;;;;;;16.19;100.00;99873.50;5047073;28;20494;-52
2022/10/22 03:57:50;;;;;;;0.40;0.30;;;;;;;16.11;100.00;99881.13;5047369;28;20491;-53
2022/10/22 04:00:16;;;;;;;0.40;0.30;;;;;;;16.16;100.00;99881.69;5048744;28;20481;-52
2022/10/22 04:02:43;;;;;;;2.27;0.50;;;;;;;16.00;100.00;99892.44;5028530;28;20430;-52
2022/10/22 04:05:09;;;;;;;0.97;0.70;;;;;;;15.87;100.00;99901.28;5027998;28;20431;-51
2022/10/22 04:07:36;;;;;;;1.97;1.00;;;;;;;15.74;100.00;99901.09;5030705;28;20514;-52
2022/10/22 04:10:03;;;;;;;0.40;0.30;;;;;;;15.53;100.00;99905.81;5040739;28;20432;-52
2022/10/22 04:12:29;;;;;;;0.43;0.30;;;;;;;15.39;100.00;99895.00;5042447;28;20429;-51
2022/10/22 04:14:56;;;;;;;0.60;0.30;;;;;;;15.21;100.00;99907.56;5048550;28;20465;-52
2022/10/22 04:17:22;;;;;;;0.90;0.60;;;;;;;15.21;100.00;99914.72;5045013;28;20515;-51
2022/10/22 04:19:48;;;;;;;0.70;0.53;;;;;;;15.31;100.00;99924.00;5036936;28;20462;-51
2022/10/22 04:22:15;;;;;;;0.50;0.40;;;;;;;15.14;100.00;99932.06;5046520;28;20451;-51
2022/10/22 04:24:41;;;;;;;0.60;0.40;;;;;;;15.11;100.00;99931.28;5031071;28;20854;-51
2022/10/22 04:27:08;;;;;;;0.60;0.33;;;;;;;15.18;100.00;99939.00;5043818;28;20934;-51
2022/10/22 04:29:34;;;;;;;0.50;0.30;;;;;;;15.02;100.00;99934.44;5029597;28;20810;-51
2022/10/22 04:32:00;;;;;;;4.30;0.40;;;;;;;15.00;100.00;99936.34;5038045;28;20450;-51
2022/10/22 04:34:27;;;;;;;0.60;0.33;;;;;;;15.17;100.00;99938.13;5044903;28;20467;-51
2022/10/22 04:36:54;;;;;;;0.60;0.50;;;;;;;14.93;100.00;99955.47;5042702;28;20466;-51
2022/10/22 04:39:21;;;;;;;10.37;0.47;;;;;;;15.02;100.00;99961.22;5032842;28;20460;-51
2022/10/22 04:41:47;;;;;;;0.53;0.40;;;;;;;14.99;100.00;99966.75;5047670;28;20529;-51
2022/10/22 04:44:13;;;;;;;2.40;2.30;;;;;;;15.28;100.00;99967.88;5045117;28;20970;-52
2022/10/22 04:46:43;;;;;;;0.40;0.30;;;;;;;15.17;100.00;99980.09;5035142;28;20472;-51
2022/10/22 04:49:10;;;;;;;0.60;0.40;;;;;;;15.10;100.00;99979.56;5035977;28;20452;-50
2022/10/22 04:51:36;;;;;;;1.13;1.13;;;;;;;15.02;100.00;99971.06;5039281;28;20531;-52
2022/10/22 04:54:03;;;;;;;0.57;0.40;;;;;;;14.97;100.00;99975.78;5035097;28;20476;-51
2022/10/22 04:56:30;;;;;;;1.03;0.50;;;;;;;15.11;100.00;99973.28;5037282;28;20992;-52
2022/10/22 04:59:02;;;;;;;3.93;0.77;;;;;;;15.16;100.00;99973.03;5041602;28;20450;-52
2022/10/22 05:01:31;;;;;;;0.57;0.57;;;;;;;15.24;100.00;99981.53;5034144;28;20479;-51
2022/10/22 05:04:01;;;;;;;7.93;1.40;;;;;;;15.30;100.00;99975.84;5033851;28;21040;-51
2022/10/22 05:06:30;;;;;;;0.63;0.40;;;;;;;15.40;100.00;99975.28;5022280;28;20437;-51
2022/10/22 05:09:02;;;;;;;0.40;0.20;;;;;;;15.25;100.00;99973.41;5037960;28;21014;-51
2022/10/22 05:11:32;;;;;;;8.30;0.60;;;;;;;15.40;100.00;99982.44;5037349;28;20899;-51
2022/10/22 05:14:00;;;;;;;1.10;0.33;;;;;;;15.64;100.00;99974.94;5035996;28;20434;-51
2022/10/22 05:16:28;;;;;;;0.60;0.30;;;;;;;15.68;100.00;99974.66;5047035;28;20494;-52
2022/10/22 05:18:57;;;;;;;0.50;0.30;;;;;;;15.55;100.00;99962.84;5035183;28;20887;-52
2022/10/22 05:21:24;;;;;;;1.90;0.40;;;;;;;15.52;100.00;99965.72;5032508;28;20461;-53
2022/10/22 05:23:51;;;;;;;0.60;0.40;;;;;;;15.53;100.00;99978.16;5040267;28;20952;-52
2022/10/22 05:26:19;;;;;;;0.73;0.73;;;;;;;15.50;100.00;99972.97;5037906;28;20430;-52
2022/10/22 05:28:46;;;;;;;1.00;0.60;;;;;;;15.50;100.00;99981.00;5040920;28;20479;-53
2022/10/22 05:31:13;;;;;;;1.60;0.50;;;;;;;15.50;100.00;99977.47;5033843;28;20446;-53
2022/10/22 05:33:40;;;;;;;0.80;0.77;;;;;;;15.48;100.00;99988.22;5035714;28;20433;-53
2022/10/22 05:36:09;;;;;;;9.23;1.10;;;;;;;15.55;100.00;99984.28;5043905;28;20465;-52
2022/10/22 05:38:36;;;;;;;0.40;0.30;;;;;;;15.55;100.00;99988.78;5048097;28;20947;-52
2022/10/22 05:41:08;;;;;;;0.70;0.50;;;;;;;15.58;100.00;99993.97;5044345;28;20797;-53
2022/10/22 05:43:34;;;;;;;1.10;0.63;;;;;;;15.47;100.00;99980.28;5020021;28;20456;-52
2022/10/22 05:46:04;;;;;;;2.73;0.47;;;;;;;15.41;100.00;99987.72;5043130;28;20429;-52
2022/10/22 05:48:31;;;;;;;0.50;0.50;;;;;;;15.54;100.00;99982.56;5045395;28;20458;-52
2022/10/22 05:51:04;;;;;;;0.80;0.40;;;;;;;15.56;100.00;99993.19;5037267;28;20453;-51
2022/10/22 05:53:36;;;;;;;0.77;0.40;;;;;;;15.58;100.00;99999.34;5038519;28;20979;-52
2022/10/22 05:56:06;;;;;;;0.93;0.70;;;;;;;15.65;100.00;99998.97;5046887;28;20491;-52
2022/10/22 05:58:34;;;;;;;1.07;0.70;;;;;;;15.67;100.00;99999.75;5037387;28;20517;-51
2022/10/22 06:01:15;;;;;;;1.13;1.13;;;;;;;15.56;100.00;100007.44;5043065;28;20876;-52
2022/10/22 06:03:42;;;;;;;0.70;0.50;;;;;;;15.69;100.00;100008.56;5039851;28;20861;-51
2022/10/22 06:06:24;;;;;;;1.30;1.20;;;;;;;15.68;100.00;100017.56;5036603;28;20450;-52
2022/10/22 06:08:53;;;;;;;0.50;0.40;;;;;;;15.70;100.00;100023.69;5033276;28;20434;-53
2022/10/22 06:11:21;;;;;;;1.37;0.60;;;;;;;15.82;100.00;100034.69;5048491;28;20492;-53
2022/10/22 06:13:49;;;;;;;1.50;1.03;;;;;;;15.83;100.00;100031.06;5037316;28;20549;-52
2022/10/22 06:16:16;;;;;;;1.10;0.70;;;;;;;15.78;100.00;100030.47;5050418;28;20472;-52
2022/10/22 06:18:42;;;;;;;0.50;0.40;;;;;;;15.73;100.00;100033.38;5038671;28;20429;-53
2022/10/22 06:21:11;;;;;;;2.17;0.90;;;;;;;15.64;100.00;100048.16;5050275;28;21073;-52
2022/10/22 06:23:39;;;;;;;0.40;0.40;;;;;;;15.62;100.00;100059.88;5048878;28;20437;-53
2022/10/22 06:26:07;;;;;;;1.77;0.40;;;;;;;15.52;100.00;100058.63;5048186;28;20482;-53
2022/10/22 06:28:34;;;;;;;0.50;0.40;;;;;;;15.52;100.00;100067.50;5050079;28;20454;-54
2022/10/22 06:31:02;;;;;;;1.23;0.70;;;;;;;15.47;100.00;100069.53;5049437;28;20453;-54
2022/10/22 06:33:31;;;;;;;0.77;0.40;;;;;;;15.45;100.00;100073.25;5036430;28;20430;-54
2022/10/22 06:36:08;;;;;;;7.93;0.53;;;;;;;15.42;100.00;100071.63;5034131;28;20494;-54
2022/10/22 06:38:35;;;;;;;0.77;0.70;;;;;;;15.38;100.00;100072.72;5023326;28;20512;-54
2022/10/22 06:41:07;;;;;;;4.30;0.70;;;;;;;15.34;100.00;100073.81;5042066;28;20824;-53
2022/10/22 06:43:33;;;;;;;0.80;0.80;;;;;;;15.29;100.00;100075.88;5024585;28;20454;-53
2022/10/22 06:46:04;;;;;;;0.53;0.43;;;;;;;15.29;100.00;100068.69;5031449;28;20423;-53
2022/10/22 06:48:32;;;;;;;4.13;0.50;;;;;;;15.36;100.00;100078.16;5050259;28;20469;-53
2022/10/22 06:51:03;;;;;;;6.73;0.50;;;;;;;15.34;100.00;100076.47;5046382;28;20481;-53
2022/10/22 06:53:30;;;;;;;1.63;0.60;;;;;;;15.11;100.00;100078.56;5032074;28;20506;-53
2022/10/22 06:55:56;;;;;;;1.73;0.90;;;;;;;15.09;100.00;100088.47;5036204;28;20497;-53
2022/10/22 06:58:23;;;;;;;1.90;1.57;;;;;;;15.00;100.00;100094.28;5049483;28;20451;-53
2022/10/22 07:00:49;;;;;;;2.00;0.80;;;;;;;14.97;100.00;100097.13;5044195;28;20475;-52
2022/10/22 07:03:15;;;;;;;1.27;1.17;;;;;;;14.93;100.00;100100.00;5049034;28;20458;-54
2022/10/22 07:05:42;;;;;;;2.87;1.70;;;;;;;14.93;100.00;100103.53;5036520;28;20430;-53
2022/10/22 07:08:08;;;;;;;0.40;0.33;;;;;;;15.03;100.00;100102.16;5039413;28;20458;-53
2022/10/22 07:10:34;;;;;;;1.43;1.03;;;;;;;15.17;100.00;100111.31;5039257;28;20862;-53
2022/10/22 07:13:01;;;;;;;9.63;0.47;;;;;;;15.45;100.00;100111.63;5043198;28;20459;-53
2022/10/22 07:15:27;;;;;;;0.80;0.53;;;;;;;15.28;100.00;100109.81;5032235;28;20441;-53
2022/10/22 07:17:53;;;;;;;0.43;0.40;;;;;;;15.57;100.00;100123.53;5031019;28;20472;-53
2022/10/22 07:20:20;;;;;;;13.23;0.70;;;;;;;15.83;100.00;100114.16;5037869;28;20475;-53
2022/10/22 07:22:47;;;;;;;2.20;0.67;;;;;;;15.77;100.00;100127.91;5044927;28;21041;-54
2022/10/22 07:25:13;;;;;;;0.43;0.30;;;;;;;15.85;100.00;100125.66;5048540;28;20480;-53
2022/10/22 07:27:40;;;;;;;0.90;0.50;;;;;;;15.68;100.00;100138.13;5048972;28;20421;-54
2022/10/22 07:30:07;;;;;;;5.43;0.40;;;;;;;15.87;100.00;100137.16;5039462;28;20471;-53
2022/10/22 07:32:34;;;;;;;0.50;0.37;;;;;;;15.87;100.00;100138.03;5039535;28;20484;-53
2022/10/22 07:35:00;;;;;;;0.60;0.40;;;;;;;16.03;100.00;100143.44;5034029;28;20508;-53
2022/10/22 07:37:26;;;;;;;0.60;0.43;;;;;;;15.98;100.00;100150.88;5049074;28;20465;-53
2022/10/22 07:39:53;;;;;;;0.40;0.30;;;;;;;16.06;100.00;100140.63;5041984;28;20429;-53
2022/10/22 07:42:19;;;;;;;0.90;0.50;;;;;;;16.05;100.00;100146.06;5042854;28;20458;-53
2022/10/22 07:44:45;;;;;;;6.73;0.60;;;;;;;16.10;100.00;100152.91;5049126;28;20444;-54
2022/10/22 07:47:12;;;;;;;0.40;0.30;;;;;;;16.13;100.00;100151.88;5048827;28;20480;-53
2022/10/22 07:49:38;;;;;;;8.17;0.33;;;;;;;16.05;100.00;100162.16;5048969;28;20503;-54
2022/10/22 07:52:06;;;;;;;2.63;0.70;;;;;;;16.00;100.00;100168.59;5047526;28;20453;-54
2022/10/22 07:54:33;;;;;;;0.63;0.63;;;;;;;16.12;100.00;100160.88;5048477;28;20479;-53
2022/10/22 07:56:59;;;;;;;0.40;0.40;;;;;;;16.21;100.00;100169.28;5048613;28;20548;-53
2022/10/22 07:59:26;;;;;;;1.40;0.47;;;;;;;16.26;100.00;100177.94;5048862;28;20577;-53
2022/10/22 08:01:52;;;;;;;0.50;0.30;;;;;;;16.34;100.00;100177.56;5048872;28;20568;-54
2022/10/22 08:04:19;;;;;;;0.40;0.37;;;;;;;16.46;100.00;100178.72;5048785;28;20512;-53
2022/10/22 08:06:45;;;;;;;0.43;0.30;;;;;;;16.38;100.00;100181.78;5049254;28;20765;-53
2022/10/22 08:09:13;;;;;;;0.50;0.40;;;;;;;16.40;100.00;100190.63;5048920;28;20478;-53
2022/10/22 08:11:39;;;;;;;33.40;0.80;;;;;;;16.37;100.00;100189.94;5047095;28;20479;-53
2022/10/22 08:14:06;;;;;;;0.60;0.53;;;;;;;16.67;100.00;100185.59;5048335;28;20868;-54
2022/10/22 08:16:32;;;;;;;0.60;0.60;;;;;;;16.66;100.00;100185.66;5048577;28;20473;-53
2022/10/22 08:18:58;;;;;;;0.50;0.40;;;;;;;16.57;100.00;100197.75;5036919;28;20497;-53
2022/10/22 08:21:25;;;;;;;0.50;0.33;;;;;;;16.53;100.00;100199.72;5048500;28;20866;-53
2022/10/22 08:23:52;;;;;;;0.60;0.43;;;;;;;16.65;100.00;100202.69;5048187;28;20448;-53
2022/10/22 08:26:18;;;;;;;0.90;0.60;;;;;;;16.68;100.00;100200.75;5048538;28;20435;-53
2022/10/22 08:28:44;;;;;;;1.43;0.40;;;;;;;16.78;100.00;100207.34;5048336;28;20485;-54
2022/10/22 08:31:11;;;;;;;8.73;0.60;;;;;;;16.95;100.00;100197.47;5048376;28;21079;-53
2022/10/22 08:33:38;;;;;;;3.13;0.80;;;;;;;17.16;100.00;100201.63;5048084;28;20421;-53
2022/10/22 08:36:05;;;;;;;0.60;0.60;;;;;;;17.18;100.00;100202.41;5048131;28;20498;-54
2022/10/22 08:38:32;;;;;;;0.50;0.30;;;;;;;17.27;100.00;100211.75;5050101;28;20940;-54
2022/10/22 08:41:12;;;;;;;2.93;0.47;;;;;;;17.37;100.00;100212.97;5045928;28;20475;-54
2022/10/22 08:43:56;;;;;;;39.30;1.07;;;;;;;17.38;100.00;100202.13;5052138;28;20454;-53
2022/10/22 08:46:32;;;;;;;0.40;0.30;;;;;;;17.04;100.00;100210.41;5052173;28;20421;-53
2022/10/22 08:49:01;;;;;;;1.00;0.90;;;;;;;17.38;100.00;100212.00;5052416;28;20997;-53
2022/10/22 08:51:39;;;;;;;0.47;0.40;;;;;;;17.42;100.00;100213.56;5051870;28;21023;-53
2022/10/22 08:54:30;;;;;;;0.47;0.40;;;;;;;17.61;100.00;100219.59;5037012;28;20429;-53
2022/10/22 08:57:07;;;;;;;0.43;0.40;;;;;;;17.73;100.00;100208.16;5041043;28;20921;-54
2022/10/22 08:59:49;;;;;;;4.33;0.40;;;;;;;17.93;99.42;100209.63;5031209;28;20877;-53
2022/10/22 09:02:45;;;;;;;0.40;0.30;;;;;;;18.19;99.17;100216.13;5032670;28;20471;-54
2022/10/22 09:05:45;;;;;;;0.60;0.30;;;;;;;18.17;99.87;100220.75;5051602;28;20948;-53
2022/10/22 09:08:13;;;;;;;0.40;0.30;;;;;;;18.22;98.65;100225.84;5036302;28;20430;-53
2022/10/22 09:10:48;;;;;;;0.73;0.30;;;;;;;18.48;98.18;100225.09;5044204;28;20487;-54
2022/10/22 09:13:19;;;;;;;0.40;0.30;;;;;;;18.34;97.42;100220.56;5039730;28;20462;-52
2022/10/22 09:15:51;;;;;;;0.40;0.30;;;;;;;18.04;98.28;100219.75;5041844;28;20509;-51
2022/10/22 09:18:32;;;;;;;0.40;0.30;;;;;;;18.37;98.08;100214.16;5040007;28;20500;-52
2022/10/22 09:21:02;;;;;;;0.50;0.40;;;;;;;18.23;98.76;100217.69;5025198;28;20475;-51
2022/10/22 09:23:50;;;;;;;4.37;2.90;;;;;;;18.45;98.51;100216.34;5035392;28;20459;-52
2022/10/22 09:26:17;;;;;;;0.60;0.40;;;;;;;18.72;97.73;100219.16;5046988;28;20441;-51
2022/10/22 09:28:49;;;;;;;0.40;0.30;;;;;;;18.84;96.62;100219.25;5049945;28;21032;-52
2022/10/22 09:31:16;;;;;;;0.83;0.50;;;;;;;18.99;96.47;100221.94;5051179;28;20529;-50
2022/10/22 09:33:44;;;;;;;1.33;0.83;;;;;;;18.86;96.30;100235.31;5051203;28;20479;-53
2022/10/22 09:36:20;;;;;;;2.40;0.40;;;;;;;18.61;96.41;100234.13;5050823;28;20928;-53
2022/10/22 09:38:50;;;;;;;1.87;0.50;;;;;;;19.04;95.00;100230.56;5046704;28;20455;-54
2022/10/22 09:41:19;;;;;;;13.67;0.50;;;;;;;19.02;96.31;100230.66;5036303;28;20458;-51
2022/10/22 09:43:46;;;;;;;0.73;0.73;;;;;;;19.02;95.53;100230.66;5043745;28;20430;-51
2022/10/22 09:46:16;;;;;;;1.60;0.57;;;;;;;19.02;95.92;100243.28;5050750;28;20482;-53
2022/10/22 09:48:49;;;;;;;0.70;0.60;;;;;;;19.08;93.83;100233.00;5038997;28;20467;-53
2022/10/22 09:51:21;;;;;;;0.60;0.50;;;;;;;19.21;94.30;100236.63;5048245;28;20467;-52
2022/10/22 09:54:02;;;;;;;0.50;0.30;;;;;;;19.08;93.70;100238.38;5039952;28;20478;-51
2022/10/22 09:56:31;;;;;;;2.07;0.70;;;;;;;19.19;94.57;100243.94;5024560;28;20465;-51
2022/10/22 09:58:57;;;;;;;0.40;0.30;;;;;;;19.29;93.93;100241.50;5050659;28;20870;-50
2022/10/22 10:01:31;;;;;;;0.60;0.40;;;;;;;19.24;92.93;100249.03;5050703;28;20467;-54
2022/10/22 10:04:06;;;;;;;3.17;0.37;;;;;;;19.34;92.33;100242.06;5050483;28;20881;-52
2022/10/22 10:06:38;;;;;;;2.60;0.40;;;;;;;19.37;93.29;100241.88;5044250;28;20442;-51
2022/10/22 10:09:16;;;;;;;0.57;0.57;;;;;;;19.64;92.78;100238.34;5038209;28;20458;-51
2022/10/22 10:11:50;;;;;;;0.50;0.30;;;;;;;19.81;91.85;100235.38;5032284;28;20592;-50
2022/10/22 10:14:38;;;;;;;7.83;0.80;;;;;;;19.86;92.09;100241.31;5024244;28;20461;-52
2022/10/22 10:17:16;;;;;;;1.33;0.30;;;;;;;19.67;91.36;100236.28;5042594;28;20551;-51
2022/10/22 10:20:04;;;;;;;0.80;0.60;;;;;;;19.76;91.29;100245.63;5042087;28;20841;-52
2022/10/22 10:22:39;;;;;;;0.67;0.53;;;;;;;20.09;90.91;100248.72;5050246;28;20820;-50
2022/10/22 10:25:40;;;;;;;5.47;0.97;;;;;;;20.03;91.39;100253.66;5050704;28;20460;-50
2022/10/22 10:28:27;;;;;;;0.53;0.30;;;;;;;20.01;90.46;100261.88;5049528;28;20865;-53
2022/10/22 10:30:57;;;;;;;0.60;0.50;;;;;;;20.20;90.47;100264.16;5031483;28;20446;-51
2022/10/22 10:33:42;;;;;;;6.90;0.50;;;;;;;20.23;89.92;100261.25;5048090;28;20458;-50
2022/10/22 10:36:31;;;;;;;1.03;0.67;;;;;;;20.24;89.98;100252.19;5046686;28;20480;-51
2022/10/22 10:39:08;;;;;;;0.60;0.40;;;;;;;20.19;90.05;100262.44;5028089;28;20451;-50
2022/10/22 10:41:56;;;;;;;0.67;0.67;;;;;;;20.16;89.66;100253.69;5032765;28;20536;-50
2022/10/22 10:44:54;;;;;;;0.50;0.40;;;;;;;20.32;88.94;100255.22;5031800;28;20467;-52
2022/10/22 10:47:31;;;;;;;0.57;0.43;;;;;;;20.50;89.22;100249.53;5001594;28;20444;-51
2022/10/22 10:50:16;;;;;;;1.97;0.50;;;;;;;20.30;89.64;100257.16;5033599;28;20463;-51
2022/10/22 10:52:56;;;;;;;2.23;0.70;;;;;;;20.45;88.44;100249.88;5036507;28;20429;-53
2022/10/22 10:55:36;;;;;;;0.50;0.30;;;;;;;20.32;88.86;100249.81;5028505;28;20463;-53
2022/10/22 10:58:16;;;;;;;1.47;0.57;;;;;;;20.27;89.36;100256.50;5044948;28;20487;-56
2022/10/22 11:00:54;;;;;;;0.43;0.30;;;;;;;20.28;87.52;100256.38;5035999;28;21296;-51
2022/10/22 11:03:26;;;;;;;4.30;0.77;;;;;;;20.42;87.93;100255.47;5037064;28;20513;-51
2022/10/22 11:05:56;;;;;;;0.70;0.43;;;;;;;20.31;88.61;100256.19;5041286;28;20459;-54
2022/10/22 11:08:40;;;;;;;7.43;0.57;;;;;;;20.34;88.26;100253.28;5039507;28;20455;-54
2022/10/22 11:11:22;;;;;;;0.70;0.63;;;;;;;20.33;87.74;100251.56;5044223;28;20469;-52
2022/10/22 11:13:56;;;;;;;0.50;0.30;;;;;;;20.33;88.20;100254.25;5037111;28;20890;-53
2022/10/22 11:16:36;;;;;;;1.00;0.50;;;;;;;20.44;87.75;100247.28;5043724;28;20975;-51
2022/10/22 11:19:15;;;;;;;0.40;0.30;;;;;;;20.11;88.42;100251.28;5037317;28;20451;-52
2022/10/22 11:22:36;;;;;;;0.60;0.40;;;;;;;19.95;88.79;100243.38;5033655;28;20520;-53
2022/10/22 11:25:02;;;;;;;0.60;0.30;;;;;;;20.17;90.03;100236.53;5040766;28;20447;-50
2022/10/22 11:27:36;;;;;;;1.60;0.53;;;;;;;20.28;89.36;100242.03;5031151;28;20513;-54
2022/10/22 11:30:15;;;;;;;0.80;0.60;;;;;;;20.23;89.20;100236.94;5042806;28;20430;-51
2022/10/22 11:32:46;;;;;;;1.07;0.97;;;;;;;20.36;89.13;100235.13;5034281;28;20456;-52
2022/10/22 11:35:21;;;;;;;0.50;0.30;;;;;;;20.53;89.06;100244.78;5043151;28;20459;-51
2022/10/22 11:37:54;;;;;;;6.20;0.40;;;;;;;20.63;86.39;100248.56;5042998;28;20469;-51
2022/10/22 11:40:36;;;;;;;2.97;0.70;;;;;;;20.83;87.09;100232.75;5033399;28;20505;-51